< Typhoon 196804 1968 Season Typhoon 196806 >
Typhoon 196805 (NADINE)
General InformationTrack Information on Google Maps || Disaster Info.ResourceGoogle EarthGE AnimationAtom FeedGeoJSON
Detalied Best Track (Time Zone = UTC)
Year Month Day Hour Lat. Long. Pressure (hPa) Wind (kt) Class Image Chart
1968 7 20 00 19.0 132.9 1006 0 2 -- Chart
1968 7 20 06 19.0 132.0 1004 0 2 -- Chart
1968 7 20 12 18.9 131.1 1004 0 2 -- Chart
1968 7 20 18 18.5 130.0 1004 0 2 -- Chart
1968 7 21 00 18.3 129.2 1004 0 2 -- Chart
1968 7 21 06 18.0 128.7 1002 0 2 -- Chart
1968 7 21 12 18.0 128.5 1000 0 2 -- Chart
1968 7 21 18 18.0 128.3 996 0 2 -- Chart
1968 7 22 00 18.2 128.0 994 0 2 -- Chart
1968 7 22 06 18.5 127.0 990 0 9 -- Chart
1968 7 22 12 18.3 126.1 992 0 9 -- Chart
1968 7 22 18 17.7 126.5 990 0 9 -- Chart
1968 7 23 00 18.3 126.4 992 0 9 -- Chart
1968 7 23 06 19.0 125.7 992 0 9 -- Chart
1968 7 23 12 20.0 125.9 992 0 9 -- Chart
1968 7 23 18 20.5 125.5 990 0 9 -- Chart
1968 7 24 00 20.5 124.6 985 0 9 -- Chart
1968 7 24 06 20.0 124.0 980 0 9 -- Chart
1968 7 24 12 19.7 123.3 975 0 9 -- Chart
1968 7 24 18 20.4 122.7 970 0 9 -- Chart
1968 7 25 00 20.9 122.4 970 0 9 -- Chart
1968 7 25 06 21.3 121.7 970 0 9 -- Chart
1968 7 25 12 22.1 120.9 975 0 9 -- Chart
1968 7 25 18 22.5 119.2 975 0 9 -- Chart
1968 7 26 00 22.3 118.0 985 0 9 -- Chart
1968 7 26 06 22.0 117.5 982 0 9 -- Chart
1968 7 26 12 21.7 117.0 980 0 9 -- Chart
1968 7 26 18 21.4 117.2 986 0 9 -- Chart
1968 7 27 00 21.9 117.1 985 0 9 -- Chart
1968 7 27 06 22.0 117.3 985 0 9 -- Chart
1968 7 27 12 22.1 117.3 985 0 9 -- Chart
1968 7 27 18 22.2 118.0 980 0 9 -- Chart
1968 7 28 00 22.5 118.8 980 0 9 -- Chart
1968 7 28 06 22.8 120.0 990 0 2 -- Chart
1968 7 28 12 23.2 121.5 990 0 2 -- Chart
1968 7 28 18 23.5 123.0 997 0 2 -- Chart
Japan Meteorological Agency Best Track Data | Correction Date : 1991-03-12
< Typhoon 196804 1968 Season Typhoon 196806 >

Help